Time;durP1;ratioP1;P1;durP2;ratioP2;P2;SDS_P1;SDS_P2;PMS_P1;PMS_P2;Temp;Humidity;BMP_temperature;BMP_pressure;BME280_temperature;BME280_humidity;BME280_pressure;Samples;Min_cycle;Max_cycle;Signal;HPM_P1;HPM_P2
2022/01/20 00:01:47;;;;;;;14.40;3.42;;;5.60;88.60;;;;;;5015958;28;20025;-31
2022/01/20 00:07:30;;;;;;;9.95;2.60;;;5.60;88.50;;;;;;5013619;28;20092;-31
2022/01/20 00:28:37;;;;;;;17.65;3.35;;;5.60;88.00;;;;;;5015623;28;20112;-29
2022/01/20 00:31:26;;;;;;;14.50;2.80;;;5.60;87.90;;;;;;5015525;28;20045;-30
2022/01/20 00:34:07;;;;;;;17.08;3.13;;;5.60;88.00;;;;;;5015525;28;20030;-29
2022/01/20 00:39:03;;;;;;;11.07;2.42;;;5.70;87.90;;;;;;5015455;28;20095;-30
2022/01/20 00:41:28;;;;;;;20.77;2.55;;;5.70;87.70;;;;;;5015199;28;20062;-29
2022/01/20 00:43:54;;;;;;;12.50;2.40;;;5.80;88.20;;;;;;5015029;28;20382;-29
2022/01/20 00:46:19;;;;;;;7.93;2.20;;;5.80;87.60;;;;;;5015022;28;20481;-29
2022/01/20 00:48:45;;;;;;;11.50;2.58;;;5.80;87.50;;;;;;5015042;28;20103;-29
2022/01/20 00:51:11;;;;;;;13.85;2.75;;;5.80;87.50;;;;;;5014876;28;20025;-31
2022/01/20 00:53:38;;;;;;;12.95;2.35;;;5.80;87.70;;;;;;5014914;28;20062;-32
2022/01/20 00:56:04;;;;;;;18.30;2.50;;;5.80;87.70;;;;;;5015070;28;20433;-29
2022/01/20 00:58:30;;;;;;;12.18;2.35;;;5.80;87.70;;;;;;5014770;28;20066;-29
2022/01/20 01:00:56;;;;;;;11.73;2.38;;;5.80;87.60;;;;;;5014624;28;20020;-34
2022/01/20 01:03:21;;;;;;;10.88;2.00;;;5.90;87.50;;;;;;5014688;28;20026;-29
2022/01/20 01:06:33;;;;;;;10.65;2.10;;;5.80;87.50;;;;;;5014862;28;20014;-30
2022/01/20 01:08:40;;;;;;;10.48;2.10;;;5.80;87.60;;;;;;5013420;28;20544;-30
2022/01/20 01:11:06;;;;;;;7.70;2.00;;;5.70;87.60;;;;;;5014784;28;20117;-29
2022/01/20 01:13:31;;;;;;;7.10;1.85;;;5.70;87.70;;;;;;5014589;28;20053;-30
2022/01/20 01:15:57;;;;;;;11.98;2.25;;;5.80;87.70;;;;;;5014471;28;20033;-29
2022/01/20 01:21:13;;;;;;;8.80;1.90;;;5.70;87.80;;;;;;5014527;28;20048;-30
2022/01/20 01:23:41;;;;;;;9.90;2.93;;;5.70;87.80;;;;;;5013982;28;20049;-30
2022/01/20 01:26:13;;;;;;;11.70;2.58;;;5.70;87.70;;;;;;5013732;28;20055;-31
2022/01/20 01:28:39;;;;;;;8.85;2.00;;;5.70;87.60;;;;;;5014235;28;20100;-30
2022/01/20 01:33:54;;;;;;;6.47;1.90;;;5.70;87.60;;;;;;5014514;28;20080;-30
2022/01/20 01:36:22;;;;;;;10.57;2.13;;;5.70;87.60;;;;;;5014126;28;20494;-29
2022/01/20 01:38:49;;;;;;;12.18;2.15;;;5.60;87.60;;;;;;5013895;28;20092;-29
2022/01/20 01:41:25;;;;;;;9.45;1.90;;;5.70;87.70;;;;;;5014000;28;20018;-30
2022/01/20 01:43:52;;;;;;;6.93;1.83;;;5.70;87.60;;;;;;5014269;28;20045;-30
2022/01/20 01:46:18;;;;;;;12.93;2.03;;;5.70;87.60;;;;;;5013818;28;20489;-29
2022/01/20 01:48:44;;;;;;;7.47;1.95;;;5.80;87.50;;;;;;5013944;28;20026;-30
2022/01/20 01:51:11;;;;;;;10.45;1.75;;;5.80;87.40;;;;;;5014102;28;20030;-31
2022/01/20 01:53:38;;;;;;;6.40;1.70;;;5.80;87.30;;;;;;5013954;28;20034;-32
2022/01/20 01:56:04;;;;;;;10.43;1.80;;;5.80;87.20;;;;;;5013784;28;20033;-30
2022/01/20 01:58:31;;;;;;;10.52;2.10;;;5.80;87.20;;;;;;5013622;28;20512;-30
2022/01/20 02:00:57;;;;;;;10.35;2.33;;;5.90;87.10;;;;;;5013775;28;20053;-30
2022/01/20 02:03:24;;;;;;;9.85;1.80;;;5.80;87.00;;;;;;5013605;28;20022;-30
2022/01/20 02:08:29;;;;;;;9.15;1.83;;;5.90;87.00;;;;;;5013936;28;20169;-31
2022/01/20 02:19:10;;;;;;;9.98;1.52;;;6.00;86.70;;;;;;5013172;28;20449;-30
2022/01/20 02:22:01;;;;;;;12.27;1.95;;;6.10;86.60;;;;;;5013708;28;20067;-31
2022/01/20 02:24:27;;;;;;;8.05;2.05;;;6.00;86.50;;;;;;5013706;28;20057;-30
2022/01/20 02:26:53;;;;;;;9.02;1.70;;;6.00;86.60;;;;;;5012127;28;20037;-30
2022/01/20 02:29:19;;;;;;;15.50;1.95;;;5.90;86.70;;;;;;5013256;28;20064;-31
2022/01/20 02:31:45;;;;;;;13.77;2.10;;;5.80;86.70;;;;;;5013230;28;20018;-30
2022/01/20 02:34:13;;;;;;;12.85;1.90;;;5.80;86.90;;;;;;5013260;28;20531;-29
2022/01/20 02:36:42;;;;;;;10.18;1.70;;;5.80;86.90;;;;;;5013097;28;20482;-28
2022/01/20 02:45:01;;;;;;;9.55;1.80;;;5.70;86.90;;;;;;5013261;28;20119;-31
2022/01/20 02:47:30;;;;;;;10.50;2.03;;;5.70;86.80;;;;;;5013175;28;20508;-29
2022/01/20 02:49:56;;;;;;;6.75;1.88;;;5.70;86.70;;;;;;5013362;28;20497;-30
2022/01/20 02:52:23;;;;;;;10.55;1.95;;;5.80;86.70;;;;;;5013266;28;20030;-29
2022/01/20 02:54:50;;;;;;;14.38;1.90;;;5.80;86.60;;;;;;5013067;28;20374;-29
2022/01/20 02:57:17;;;;;;;13.25;2.25;;;5.70;86.60;;;;;;5012851;28;20030;-30
2022/01/20 02:59:42;;;;;;;9.02;1.80;;;5.70;86.60;;;;;;5013046;28;20033;-30
2022/01/20 03:02:09;;;;;;;8.98;2.13;;;5.70;86.50;;;;;;5013034;28;20482;-29
2022/01/20 03:04:38;;;;;;;9.98;1.83;;;5.70;86.60;;;;;;5013094;28;20026;-29
2022/01/20 03:07:05;;;;;;;11.07;2.17;;;5.70;86.50;;;;;;5013153;28;20470;-29
2022/01/20 03:09:31;;;;;;;13.63;2.35;;;5.80;86.50;;;;;;5012907;28;20041;-30
2022/01/20 03:11:58;;;;;;;11.98;2.67;;;5.80;86.50;;;;;;5013233;28;20030;-31
2022/01/20 03:14:24;;;;;;;7.55;1.85;;;5.80;86.30;;;;;;5028103;28;20088;-31
2022/01/20 03:16:50;;;;;;;9.63;1.80;;;5.90;86.20;;;;;;5013019;28;20038;-30
2022/01/20 03:19:16;;;;;;;14.20;1.77;;;5.80;86.10;;;;;;5013028;28;20030;-29
2022/01/20 03:21:43;;;;;;;11.60;2.38;;;5.90;86.10;;;;;;5028017;28;20026;-30
2022/01/20 03:24:10;;;;;;;11.65;2.00;;;5.90;85.90;;;;;;5012784;28;20478;-32
2022/01/20 03:26:37;;;;;;;10.90;2.50;;;5.90;85.90;;;;;;5012822;28;20049;-30
2022/01/20 03:29:04;;;;;;;10.23;2.10;;;5.90;85.90;;;;;;5012777;28;20061;-30
2022/01/20 03:31:31;;;;;;;15.35;2.33;;;5.90;86.00;;;;;;5012681;28;20038;-29
2022/01/20 03:33:57;;;;;;;12.38;2.40;;;5.90;86.00;;;;;;5027993;28;20191;-29
2022/01/20 03:36:23;;;;;;;9.80;1.92;;;5.90;86.00;;;;;;5012428;28;20095;-31
2022/01/20 03:38:49;;;;;;;7.72;1.58;;;5.90;86.00;;;;;;5012432;28;20113;-29
2022/01/20 03:41:15;;;;;;;7.30;1.83;;;5.90;86.00;;;;;;5012770;28;20509;-30
2022/01/20 03:43:41;;;;;;;6.60;1.60;;;5.90;86.00;;;;;;5012538;28;20112;-31
2022/01/20 03:46:12;;;;;;;9.07;1.70;;;5.90;86.00;;;;;;5012424;28;20040;-29
2022/01/20 03:48:50;;;;;;;8.00;1.58;;;5.80;86.00;;;;;;5014772;28;20036;-29
2022/01/20 03:51:21;;;;;;;6.13;1.75;;;5.80;86.10;;;;;;5016209;28;20080;-30
2022/01/20 03:53:49;;;;;;;11.65;1.50;;;5.80;86.30;;;;;;5016069;28;20104;-31
2022/01/20 03:56:15;;;;;;;9.65;1.70;;;5.80;86.30;;;;;;5016309;28;20051;-32
2022/01/20 03:58:41;;;;;;;16.38;2.05;;;5.80;86.40;;;;;;5015847;28;20045;-34
2022/01/20 04:01:06;;;;;;;7.13;1.70;;;5.80;86.30;;;;;;5015669;28;20413;-31
2022/01/20 04:03:32;;;;;;;7.57;1.40;;;5.80;86.30;;;;;;5015867;28;20024;-34
2022/01/20 04:05:57;;;;;;;8.00;1.38;;;5.90;86.50;;;;;;5015791;28;20022;-29
2022/01/20 04:08:35;;;;;;;5.68;1.35;;;5.90;86.30;;;;;;5016066;28;20034;-29
2022/01/20 04:11:13;;;;;;;10.88;2.00;;;5.90;86.30;;;;;;5015692;28;20072;-31
2022/01/20 04:13:39;;;;;;;6.88;1.67;;;5.80;86.30;;;;;;5015762;28;20063;-29
2022/01/20 04:16:51;;;;;;;10.23;2.10;;;5.90;86.20;;;;;;5015366;28;20026;-31
2022/01/20 04:19:17;;;;;;;9.93;1.77;;;5.90;86.20;;;;;;5015338;28;20042;-29
2022/01/20 04:21:43;;;;;;;9.15;1.60;;;5.80;86.10;;;;;;5015587;28;20068;-32
2022/01/20 04:24:09;;;;;;;8.98;1.50;;;5.80;86.10;;;;;;5015447;28;20541;-31
2022/01/20 04:26:37;;;;;;;8.60;1.70;;;5.80;86.00;;;;;;5015521;28;20068;-30
2022/01/20 04:29:07;;;;;;;7.30;1.42;;;5.80;86.00;;;;;;5015563;28;20029;-30
2022/01/20 04:31:35;;;;;;;14.70;1.65;;;5.80;86.00;;;;;;5015343;28;20117;-29
2022/01/20 04:34:02;;;;;;;10.05;1.45;;;5.70;85.70;;;;;;5015517;28;20417;-30
2022/01/20 04:36:31;;;;;;;8.85;1.52;;;5.80;85.80;;;;;;5015454;28;20072;-30
2022/01/20 04:38:59;;;;;;;7.25;1.55;;;5.70;85.90;;;;;;5015343;28;20397;-32
2022/01/20 04:41:28;;;;;;;8.68;1.23;;;5.70;85.60;;;;;;5015353;28;20385;-30
2022/01/20 04:43:54;;;;;;;11.07;1.98;;;5.70;85.80;;;;;;5013904;28;20029;-29
2022/01/20 04:46:36;;;;;;;11.52;1.80;;;5.70;85.40;;;;;;5013892;28;20030;-29
2022/01/20 04:57:17;;;;;;;9.23;1.52;;;5.60;85.00;;;;;;5015131;28;20456;-30
2022/01/20 04:59:45;;;;;;;7.88;1.80;;;5.60;85.20;;;;;;5014792;28;20029;-30
2022/01/20 05:02:11;;;;;;;7.05;2.33;;;5.60;85.20;;;;;;5014748;28;20109;-31
2022/01/20 05:04:38;;;;;;;7.85;2.00;;;5.60;85.30;;;;;;5014980;28;20022;-30
2022/01/20 05:07:05;;;;;;;9.75;1.67;;;5.60;85.20;;;;;;5014937;28;20478;-30
2022/01/20 05:09:30;;;;;;;8.60;1.73;;;5.60;85.20;;;;;;5014861;28;20405;-31
2022/01/20 05:14:27;;;;;;;6.70;1.80;;;5.60;85.10;;;;;;5014927;28;20116;-31
2022/01/20 05:16:55;;;;;;;13.32;1.95;;;5.60;85.00;;;;;;5014500;28;20084;-29
2022/01/20 05:19:21;;;;;;;9.18;1.55;;;5.60;85.10;;;;;;5014652;28;20034;-29
2022/01/20 05:21:47;;;;;;;5.95;1.60;;;5.60;85.20;;;;;;5014464;28;20034;-31
2022/01/20 05:24:12;;;;;;;6.97;1.60;;;5.60;85.00;;;;;;5014274;28;20105;-32
2022/01/20 05:26:38;;;;;;;7.38;1.50;;;5.60;85.00;;;;;;5014512;28;20067;-30
2022/01/20 05:29:03;;;;;;;10.70;1.45;;;5.60;85.00;;;;;;5014334;28;20160;-30
2022/01/20 05:31:29;;;;;;;8.10;1.58;;;5.70;85.20;;;;;;5014343;28;20026;-30
2022/01/20 05:33:55;;;;;;;8.52;1.55;;;5.70;85.10;;;;;;5029279;28;20026;-31
2022/01/20 05:36:20;;;;;;;6.60;1.60;;;5.70;85.10;;;;;;5013976;28;20050;-30
2022/01/20 05:38:46;;;;;;;9.20;1.95;;;5.70;85.10;;;;;;5013958;28;20038;-30
2022/01/20 05:41:12;;;;;;;8.45;1.52;;;5.70;85.10;;;;;;5013948;28;20053;-30
2022/01/20 05:43:37;;;;;;;9.68;1.80;;;5.70;84.50;;;;;;5014056;28;20046;-31
2022/01/20 05:46:04;;;;;;;7.97;1.80;;;5.60;84.40;;;;;;5013836;28;20112;-30
2022/01/20 05:48:33;;;;;;;8.38;1.33;;;5.60;84.50;;;;;;5014022;28;20025;-30
2022/01/20 05:50:59;;;;;;;10.25;1.92;;;5.60;84.40;;;;;;5014187;28;20057;-29
2022/01/20 05:53:25;;;;;;;9.32;1.80;;;5.60;84.40;;;;;;5029070;28;20037;-29
2022/01/20 05:55:50;;;;;;;6.20;1.27;;;5.60;84.30;;;;;;5014080;28;20033;-31
2022/01/20 05:58:16;;;;;;;8.55;1.73;;;5.60;84.30;;;;;;5013634;28;20482;-29
2022/01/20 06:00:42;;;;;;;9.32;2.15;;;5.60;84.20;;;;;;5013794;28;20048;-30
2022/01/20 06:05:52;;;;;;;17.30;2.83;;;5.60;82.70;;;;;;5013974;28;20508;-30
2022/01/20 06:08:18;;;;;;;13.23;2.80;;;5.60;82.40;;;;;;5013516;28;20030;-30
2022/01/20 06:10:44;;;;;;;13.57;2.38;;;5.50;81.00;;;;;;5013410;28;20076;-30
2022/01/20 06:13:10;;;;;;;12.65;2.35;;;5.50;81.60;;;;;;5013475;28;20032;-31
2022/01/20 06:15:35;;;;;;;13.95;2.40;;;5.50;81.90;;;;;;5028694;28;20018;-30
2022/01/20 06:18:01;;;;;;;9.88;1.77;;;5.50;81.40;;;;;;5028431;28;20048;-31
2022/01/20 06:20:28;;;;;;;14.20;2.15;;;5.50;81.80;;;;;;5013648;28;20067;-30
2022/01/20 06:22:53;;;;;;;10.35;2.30;;;5.50;81.70;;;;;;5013468;28;20465;-30
2022/01/20 06:25:19;;;;;;;15.35;2.30;;;5.50;81.10;;;;;;5013343;28;20159;-30
2022/01/20 06:27:45;;;;;;;10.55;2.35;;;5.40;81.00;;;;;;5013274;28;20496;-29
2022/01/20 06:30:14;;;;;;;10.88;2.45;;;5.40;81.00;;;;;;5013274;28;20030;-32
2022/01/20 06:32:40;;;;;;;11.68;1.80;;;5.40;80.70;;;;;;5013252;28;20030;-29
2022/01/20 06:35:07;;;;;;;9.60;1.90;;;5.40;80.30;;;;;;5012997;28;20061;-31
2022/01/20 06:37:33;;;;;;;8.43;2.22;;;5.40;80.40;;;;;;5013515;28;20088;-29
2022/01/20 06:39:58;;;;;;;9.68;2.05;;;5.40;78.70;;;;;;5013178;28;20022;-34
2022/01/20 06:42:24;;;;;;;13.25;2.50;;;5.40;79.40;;;;;;5013161;28;20474;-30
2022/01/20 06:44:49;;;;;;;7.93;2.25;;;5.40;78.40;;;;;;5013089;28;20097;-29
2022/01/20 06:47:15;;;;;;;9.30;2.22;;;5.30;78.20;;;;;;5012992;28;20041;-29
2022/01/20 06:49:41;;;;;;;8.73;2.20;;;5.30;78.80;;;;;;5013395;28;20088;-29
2022/01/20 06:52:07;;;;;;;14.15;2.45;;;5.30;78.90;;;;;;5013014;28;20037;-33
2022/01/20 06:54:34;;;;;;;13.35;2.10;;;5.30;78.50;;;;;;5013028;28;20026;-30
2022/01/20 06:56:59;;;;;;;7.40;1.98;;;5.30;78.60;;;;;;5012990;28;20056;-29
2022/01/20 06:59:25;;;;;;;7.00;1.85;;;5.40;77.90;;;;;;5013138;28;20065;-30
2022/01/20 07:01:52;;;;;;;37.08;3.33;;;5.30;74.90;;;;;;5012824;28;20438;-29
2022/01/20 07:04:18;;;;;;;9.52;1.70;;;5.20;74.90;;;;;;5012990;28;20032;-29
2022/01/20 07:06:44;;;;;;;7.75;1.40;;;4.90;76.30;;;;;;5012986;28;20026;-29
2022/01/20 07:09:11;;;;;;;7.80;1.58;;;4.60;77.50;;;;;;5027685;28;20030;-30
2022/01/20 07:11:38;;;;;;;6.25;1.15;;;4.40;78.30;;;;;;5012976;28;20043;-29
2022/01/20 07:14:04;;;;;;;6.60;1.40;;;4.40;78.80;;;;;;5012853;28;20030;-31
2022/01/20 07:16:30;;;;;;;5.43;1.08;;;4.30;79.00;;;;;;5012881;28;20026;-30
2022/01/20 07:18:58;;;;;;;4.22;0.93;;;4.20;79.20;;;;;;5012715;28;20132;-30
2022/01/20 07:21:24;;;;;;;4.68;0.98;;;4.10;79.40;;;;;;5012833;28;20026;-33
2022/01/20 07:23:50;;;;;;;7.47;1.17;;;4.10;79.60;;;;;;5015414;28;20033;-33
2022/01/20 07:26:16;;;;;;;3.75;0.95;;;4.10;79.80;;;;;;5016440;28;20026;-29
2022/01/20 07:28:42;;;;;;;9.98;1.38;;;4.10;79.90;;;;;;5015402;28;20041;-29
2022/01/20 07:31:08;;;;;;;6.20;1.45;;;4.10;80.00;;;;;;5015144;28;20022;-28
2022/01/20 07:33:35;;;;;;;4.18;1.58;;;4.10;79.90;;;;;;5016603;28;20458;-31
2022/01/20 07:36:03;;;;;;;7.97;1.30;;;4.10;80.00;;;;;;5016177;28;20060;-30
2022/01/20 07:38:30;;;;;;;5.50;1.13;;;4.10;80.10;;;;;;5016286;28;20065;-30
2022/01/20 07:40:56;;;;;;;5.55;1.40;;;4.10;80.10;;;;;;5016636;28;20451;-31
2022/01/20 07:43:22;;;;;;;9.45;1.38;;;4.10;80.20;;;;;;5016508;28;20079;-29
2022/01/20 07:45:48;;;;;;;4.45;1.02;;;4.00;80.50;;;;;;5016325;28;20022;-29
2022/01/20 07:48:13;;;;;;;5.10;1.10;;;4.10;80.40;;;;;;5016135;28;20026;-33
2022/01/20 07:50:39;;;;;;;6.93;1.23;;;4.10;80.40;;;;;;5016015;28;20030;-29
2022/01/20 07:53:05;;;;;;;6.55;1.70;;;4.20;80.40;;;;;;5015982;28;20104;-29
2022/01/20 07:55:31;;;;;;;5.88;1.35;;;4.20;80.80;;;;;;5016084;28;20030;-29
2022/01/20 07:57:57;;;;;;;7.30;1.60;;;4.30;80.10;;;;;;5015807;28;20454;-33
2022/01/20 08:00:23;;;;;;;4.63;1.17;;;4.30;80.10;;;;;;5015831;28;20080;-32
2022/01/20 08:02:49;;;;;;;5.93;1.27;;;4.40;80.10;;;;;;5015925;28;20530;-31
2022/01/20 08:05:15;;;;;;;6.43;1.35;;;4.40;80.00;;;;;;5015732;28;20022;-30
2022/01/20 08:07:41;;;;;;;6.25;1.40;;;4.50;79.90;;;;;;5015832;28;20022;-32
2022/01/20 08:10:07;;;;;;;8.50;1.20;;;4.60;79.80;;;;;;5016039;28;20034;-29
2022/01/20 08:12:33;;;;;;;7.95;1.40;;;4.60;79.70;;;;;;5031061;28;20030;-30
2022/01/20 08:14:59;;;;;;;6.63;1.60;;;4.70;79.70;;;;;;5015775;28;20037;-37
2022/01/20 08:17:26;;;;;;;5.78;1.50;;;4.70;79.60;;;;;;5015819;28;20030;-32
2022/01/20 08:19:52;;;;;;;5.40;1.05;;;4.80;80.20;;;;;;5015858;28;20022;-31
2022/01/20 08:22:18;;;;;;;4.13;1.05;;;4.90;79.50;;;;;;5015853;28;20475;-30
2022/01/20 08:24:49;;;;;;;4.07;0.95;;;4.90;79.50;;;;;;5015918;28;20068;-29
2022/01/20 08:27:16;;;;;;;4.55;1.45;;;5.00;79.30;;;;;;5015703;28;20125;-32
2022/01/20 08:29:42;;;;;;;3.70;1.50;;;5.00;79.30;;;;;;5015395;28;20034;-32
2022/01/20 08:32:08;;;;;;;6.53;1.52;;;5.00;79.20;;;;;;5015374;28;20029;-32
2022/01/20 08:34:34;;;;;;;6.43;1.73;;;4.90;79.30;;;;;;5014781;28;20049;-37
2022/01/20 08:36:59;;;;;;;5.15;1.33;;;4.90;79.20;;;;;;5015159;28;20032;-31
2022/01/20 08:39:46;;;;;;;5.30;1.40;;;4.90;79.20;;;;;;5015362;28;20100;-30
2022/01/20 08:42:12;;;;;;;7.40;1.70;;;4.90;79.20;;;;;;5015057;28;20033;-30
2022/01/20 08:44:39;;;;;;;13.20;2.00;;;4.90;79.30;;;;;;5015104;28;20032;-31
2022/01/20 08:47:13;;;;;;;5.97;1.77;;;4.90;79.20;;;;;;5030172;28;20032;-30
2022/01/20 08:49:39;;;;;;;5.07;1.33;;;4.90;79.30;;;;;;5015371;28;20029;-30
2022/01/20 08:52:05;;;;;;;7.45;1.90;;;4.90;79.40;;;;;;5014960;28;20026;-31
2022/01/20 08:54:30;;;;;;;8.23;1.58;;;5.00;79.50;;;;;;5014945;28;20030;-32
2022/01/20 08:56:56;;;;;;;5.43;1.60;;;5.10;79.50;;;;;;5015169;28;20038;-30
2022/01/20 08:59:22;;;;;;;5.80;1.70;;;5.20;79.30;;;;;;5014604;28;20034;-29
2022/01/20 09:01:47;;;;;;;6.28;1.55;;;5.30;79.20;;;;;;5029830;28;20022;-29
2022/01/20 09:04:13;;;;;;;7.18;1.70;;;5.40;78.90;;;;;;5014543;28;20022;-30
2022/01/20 09:06:39;;;;;;;7.63;1.95;;;5.50;78.60;;;;;;5014741;28;20057;-31
2022/01/20 09:09:04;;;;;;;6.85;1.70;;;5.50;78.50;;;;;;5029627;28;20030;-28
2022/01/20 09:11:36;;;;;;;6.35;1.48;;;5.50;78.30;;;;;;5014545;28;20034;-30
2022/01/20 09:16:46;;;;;;;12.00;1.90;;;5.40;78.10;;;;;;5014740;28;20076;-31
2022/01/20 09:19:12;;;;;;;9.05;1.55;;;5.20;77.90;;;;;;5014198;28;20057;-34
2022/01/20 09:24:59;;;;;;;7.38;1.85;;;5.10;78.10;;;;;;5014449;28;20204;-29
2022/01/20 09:27:25;;;;;;;8.82;2.00;;;5.00;78.40;;;;;;5014352;28;20137;-29
2022/01/20 09:29:50;;;;;;;10.57;1.60;;;5.00;78.50;;;;;;5013051;28;20030;-30
2022/01/20 09:32:18;;;;;;;12.43;2.00;;;4.90;78.60;;;;;;5014286;28;20022;-29
2022/01/20 09:34:44;;;;;;;7.25;1.92;;;4.90;78.80;;;;;;5014041;28;20058;-30
2022/01/20 09:37:10;;;;;;;8.35;1.88;;;4.90;79.00;;;;;;5014077;28;20138;-31
2022/01/20 09:39:38;;;;;;;8.68;1.60;;;4.90;79.10;;;;;;5014270;28;20034;-37
2022/01/20 09:42:05;;;;;;;9.15;1.83;;;4.90;79.00;;;;;;5014216;28;20036;-29
2022/01/20 09:44:31;;;;;;;7.00;1.73;;;4.90;79.20;;;;;;5013947;28;20048;-32
2022/01/20 09:46:57;;;;;;;6.57;1.60;;;4.90;79.30;;;;;;5013534;28;20026;-28
2022/01/20 09:49:22;;;;;;;6.13;1.52;;;4.90;79.50;;;;;;5013971;28;20026;-30
2022/01/20 09:51:48;;;;;;;8.43;1.75;;;4.90;79.50;;;;;;5013974;28;20521;-30
2022/01/20 09:54:14;;;;;;;5.80;1.40;;;4.90;79.60;;;;;;5029006;28;20026;-30
2022/01/20 09:56:44;;;;;;;6.13;1.58;;;4.80;79.60;;;;;;5013766;28;20033;-30
2022/01/20 09:59:10;;;;;;;8.70;1.60;;;4.80;79.70;;;;;;5013590;28;20030;-32
2022/01/20 10:01:46;;;;;;;8.63;1.95;;;4.80;79.80;;;;;;5013805;28;20033;-31
2022/01/20 10:04:30;;;;;;;7.47;1.70;;;4.80;80.50;;;;;;5013645;28;20133;-31
2022/01/20 10:06:58;;;;;;;6.90;1.50;;;4.90;79.70;;;;;;5013908;28;20470;-31
2022/01/20 10:09:39;;;;;;;7.32;1.73;;;5.00;79.70;;;;;;5013695;28;20025;-31
2022/01/20 10:12:07;;;;;;;8.50;1.60;;;5.10;79.60;;;;;;5013811;28;20420;-31
2022/01/20 10:14:44;;;;;;;5.80;1.88;;;5.20;79.50;;;;;;5013598;28;20061;-30
2022/01/20 10:17:21;;;;;;;7.70;1.92;;;5.20;79.40;;;;;;5013635;28;20043;-30
2022/01/20 10:19:51;;;;;;;10.18;1.95;;;5.20;79.10;;;;;;5013450;28;20077;-30
2022/01/20 10:22:21;;;;;;;10.50;2.15;;;5.20;79.30;;;;;;5013470;28;20030;-31
2022/01/20 10:25:05;;;;;;;8.88;1.90;;;5.40;79.20;;;;;;5013540;28;20030;-31
2022/01/20 10:27:33;;;;;;;8.82;1.65;;;5.50;78.70;;;;;;5013530;28;20033;-30
2022/01/20 10:30:09;;;;;;;10.43;1.70;;;5.50;78.50;;;;;;5013179;28;20025;-30
2022/01/20 10:32:49;;;;;;;5.93;1.50;;;5.60;78.50;;;;;;5013567;28;20466;-31
2022/01/20 10:35:18;;;;;;;10.18;2.10;;;5.60;78.60;;;;;;5013053;28;20437;-30
2022/01/20 10:38:00;;;;;;;9.45;2.28;;;5.60;78.20;;;;;;5013015;28;20037;-29
2022/01/20 10:40:26;;;;;;;7.80;1.90;;;5.70;78.30;;;;;;5011858;28;20381;-29
2022/01/20 10:42:52;;;;;;;8.38;2.05;;;5.70;78.20;;;;;;5013271;28;20386;-37
2022/01/20 10:45:29;;;;;;;8.45;2.30;;;5.70;78.30;;;;;;5013405;28;20390;-30
2022/01/20 10:47:59;;;;;;;6.22;1.90;;;5.80;78.10;;;;;;5013024;28;20026;-28
2022/01/20 10:50:28;;;;;;;8.43;1.88;;;5.80;78.10;;;;;;5013100;28;20390;-30
2022/01/20 10:52:54;;;;;;;11.20;2.30;;;5.80;78.20;;;;;;5013018;28;20026;-30
2022/01/20 10:55:33;;;;;;;12.05;3.42;;;5.80;78.30;;;;;;5013023;28;20517;-29
2022/01/20 10:58:12;;;;;;;13.90;3.10;;;5.90;77.80;;;;;;5015956;28;20076;-32
2022/01/20 11:00:44;;;;;;;10.68;2.83;;;5.90;77.40;;;;;;5017084;28;20047;-34
2022/01/20 11:03:09;;;;;;;11.02;2.83;;;5.90;77.40;;;;;;5017046;28;20018;-29
2022/01/20 11:05:35;;;;;;;12.32;2.40;;;5.90;77.60;;;;;;5017047;28;20064;-29
2022/01/20 11:08:01;;;;;;;7.00;1.90;;;5.90;77.60;;;;;;5016915;28;20072;-37
2022/01/20 11:10:27;;;;;;;10.18;2.33;;;6.00;77.20;;;;;;5016688;28;20036;-29
2022/01/20 11:12:53;;;;;;;9.23;1.85;;;6.00;77.00;;;;;;5016867;28;20105;-30
2022/01/20 11:15:20;;;;;;;12.25;1.92;;;6.20;76.90;;;;;;5016692;28;20025;-30
2022/01/20 11:17:52;;;;;;;8.68;1.92;;;6.30;75.80;;;;;;5016793;28;20022;-28
2022/01/20 11:20:21;;;;;;;12.23;2.67;;;6.30;75.30;;;;;;5016527;28;20014;-29
2022/01/20 11:23:11;;;;;;;12.38;2.85;;;6.30;74.80;;;;;;5016570;28;20506;-29
2022/01/20 11:25:40;;;;;;;12.23;2.38;;;6.30;74.90;;;;;;5016876;28;20022;-28
2022/01/20 11:28:21;;;;;;;18.17;2.10;;;6.30;72.10;;;;;;5016779;28;20045;-29
2022/01/20 11:30:59;;;;;;;11.13;1.80;;;6.20;71.70;;;;;;5016563;28;20060;-29
2022/01/20 11:33:41;;;;;;;10.27;2.08;;;6.20;72.00;;;;;;5016427;28;20034;-30
2022/01/20 11:36:33;;;;;;;10.27;2.13;;;6.20;72.00;;;;;;5016217;28;20058;-31
2022/01/20 11:39:01;;;;;;;7.75;1.52;;;6.20;70.70;;;;;;5013204;28;20049;-29
2022/01/20 11:41:47;;;;;;;7.55;1.50;;;6.20;72.10;;;;;;5016303;28;20424;-32
2022/01/20 11:44:14;;;;;;;9.55;1.70;;;6.30;72.00;;;;;;5016081;28;20036;-30
2022/01/20 11:46:44;;;;;;;6.00;1.65;;;6.50;72.10;;;;;;5016370;28;20462;-29
2022/01/20 11:49:12;;;;;;;5.95;1.65;;;6.50;72.00;;;;;;5016080;28;20080;-29
2022/01/20 11:52:12;;;;;;;6.53;1.60;;;6.50;71.80;;;;;;5016122;28;20076;-30
2022/01/20 11:54:40;;;;;;;5.93;1.30;;;6.50;70.70;;;;;;4992890;28;20061;-30
2022/01/20 11:57:13;;;;;;;10.52;2.00;;;6.30;71.40;;;;;;5015981;28;20473;-29
2022/01/20 11:59:44;;;;;;;6.63;1.30;;;6.20;71.50;;;;;;5016094;28;20351;-30
2022/01/20 12:02:22;;;;;;;4.40;1.10;;;5.90;74.10;;;;;;5015830;28;20022;-32
2022/01/20 12:04:49;;;;;;;3.65;1.10;;;5.40;75.70;;;;;;5031060;28;20405;-29
2022/01/20 12:07:30;;;;;;;4.90;1.00;;;5.00;76.60;;;;;;5031134;28;20045;-30
2022/01/20 12:10:16;;;;;;;5.50;1.33;;;4.70;78.40;;;;;;5014970;28;20026;-29
2022/01/20 12:12:42;;;;;;;5.72;1.33;;;4.40;79.20;;;;;;5015796;28;20042;-31
2022/01/20 12:15:16;;;;;;;6.80;1.55;;;4.20;79.70;;;;;;5030961;28;20104;-29
2022/01/20 12:17:50;;;;;;;6.55;1.88;;;4.10;80.30;;;;;;5015779;28;20014;-29
2022/01/20 12:20:16;;;;;;;8.65;1.48;;;4.10;80.80;;;;;;5016236;28;20369;-29
2022/01/20 12:22:43;;;;;;;3.58;1.00;;;4.10;81.10;;;;;;5015736;28;20025;-30
2022/01/20 12:25:19;;;;;;;4.05;1.08;;;4.20;81.40;;;;;;5015332;28;20018;-31
2022/01/20 12:27:46;;;;;;;3.25;0.95;;;4.30;81.60;;;;;;5030559;28;20110;-31
2022/01/20 12:30:24;;;;;;;5.72;1.00;;;4.30;81.70;;;;;;5015648;28;20498;-29
2022/01/20 12:33:07;;;;;;;6.80;1.45;;;4.40;81.80;;;;;;5015181;28;20026;-31
2022/01/20 12:35:45;;;;;;;8.38;1.50;;;4.40;81.90;;;;;;5015297;28;20069;-35
2022/01/20 12:38:28;;;;;;;9.32;1.70;;;4.50;82.00;;;;;;5015146;28;20037;-33
2022/01/20 12:41:04;;;;;;;6.38;1.25;;;4.60;82.00;;;;;;5015175;28;20069;-30
2022/01/20 12:43:57;;;;;;;5.03;1.48;;;4.80;82.00;;;;;;5015448;28;20125;-31
2022/01/20 12:46:36;;;;;;;9.15;1.52;;;4.90;81.50;;;;;;5008693;28;20113;-28
2022/01/20 12:49:17;;;;;;;9.90;1.73;;;5.10;81.20;;;;;;5014997;28;20037;-29
2022/01/20 12:51:53;;;;;;;8.57;1.52;;;5.30;80.80;;;;;;5014931;28;20034;-30
2022/01/20 12:54:29;;;;;;;7.18;1.50;;;5.40;79.90;;;;;;5014883;28;20029;-29
2022/01/20 12:56:57;;;;;;;9.18;2.00;;;5.50;79.90;;;;;;5014835;28;20030;-29
2022/01/20 12:59:28;;;;;;;6.47;1.50;;;5.50;79.10;;;;;;5014692;28;20076;-28
2022/01/20 13:02:02;;;;;;;5.60;1.80;;;5.50;78.50;;;;;;5015043;28;20421;-29
2022/01/20 13:04:31;;;;;;;8.45;2.05;;;5.50;77.70;;;;;;5014751;28;20022;-29
2022/01/20 13:07:00;;;;;;;6.25;1.40;;;5.50;77.60;;;;;;5014603;28;20033;-29
2022/01/20 13:09:48;;;;;;;7.70;2.20;;;5.50;77.80;;;;;;5014748;28;20022;-30
2022/01/20 13:12:16;;;;;;;15.95;2.22;;;5.60;76.60;;;;;;5014718;28;20524;-33
2022/01/20 13:14:49;;;;;;;6.63;1.77;;;5.60;74.40;;;;;;5014614;28;20069;-29
2022/01/20 13:17:24;;;;;;;13.27;2.10;;;5.60;74.60;;;;;;5014533;28;20026;-30
2022/01/20 13:19:52;;;;;;;11.05;2.15;;;5.50;75.30;;;;;;5012481;28;20030;-33
2022/01/20 13:22:56;;;;;;;10.23;2.38;;;5.50;75.40;;;;;;5014571;28;20377;-31
2022/01/20 13:25:27;;;;;;;10.25;2.15;;;5.50;75.10;;;;;;5004124;28;20371;-34
2022/01/20 13:28:01;;;;;;;8.95;2.00;;;5.60;75.70;;;;;;5014154;28;20076;-30
2022/01/20 13:30:39;;;;;;;7.28;1.90;;;5.70;75.40;;;;;;5014025;28;20497;-29
2022/01/20 13:33:15;;;;;;;9.77;2.38;;;5.70;74.50;;;;;;5014242;28;20478;-29
2022/01/20 13:35:43;;;;;;;6.10;1.75;;;5.80;72.40;;;;;;5014202;28;20095;-30
2022/01/20 13:38:09;;;;;;;8.40;1.45;;;5.80;73.40;;;;;;5013945;28;20036;-29
2022/01/20 13:40:39;;;;;;;7.82;1.70;;;5.90;73.30;;;;;;5014154;28;20026;-29
2022/01/20 13:46:03;;;;;;;8.25;1.60;;;5.80;73.80;;;;;;5014214;28;20441;-30
2022/01/20 13:48:32;;;;;;;8.75;1.80;;;5.80;73.10;;;;;;5013965;28;20516;-29
2022/01/20 13:50:59;;;;;;;7.30;1.90;;;5.80;71.60;;;;;;5013805;28;20033;-28
2022/01/20 13:53:27;;;;;;;7.03;1.75;;;5.70;71.10;;;;;;5013858;28;20429;-31
2022/01/20 13:55:56;;;;;;;9.32;1.83;;;5.70;72.40;;;;;;5013777;28;20022;-30
2022/01/20 13:58:28;;;;;;;7.30;1.90;;;5.60;72.30;;;;;;5013565;28;20029;-30
2022/01/20 14:00:56;;;;;;;7.78;1.80;;;5.60;72.30;;;;;;5013673;28;20030;-29
2022/01/20 14:03:23;;;;;;;7.32;1.60;;;5.60;73.10;;;;;;5013652;28;20018;-29
2022/01/20 14:05:50;;;;;;;7.10;1.75;;;5.60;73.10;;;;;;5013868;28;20018;-29
2022/01/20 14:08:18;;;;;;;7.10;1.67;;;5.60;73.20;;;;;;5013788;28;20022;-34
2022/01/20 14:10:44;;;;;;;8.30;1.70;;;5.60;73.10;;;;;;5013833;28;20026;-29
2022/01/20 14:13:09;;;;;;;11.90;3.13;;;5.60;72.40;;;;;;5013302;28;20034;-29